sensor_id;sensor_type;location;lat;lon;timestamp;temperature;humidity
52615;DHT22;38508;53.158;6.614;2023-05-10T00:01:46;14.90;99.90
52615;DHT22;38508;53.158;6.614;2023-05-10T00:04:12;14.80;99.90
52615;DHT22;38508;53.158;6.614;2023-05-10T00:06:37;14.70;99.90
52615;DHT22;38508;53.158;6.614;2023-05-10T00:09:03;14.60;99.90
52615;DHT22;38508;53.158;6.614;2023-05-10T00:11:29;14.70;99.90
52615;DHT22;38508;53.158;6.614;2023-05-10T00:13:55;14.80;99.90
52615;DHT22;38508;53.158;6.614;2023-05-10T00:16:20;14.90;99.90
52615;DHT22;38508;53.158;6.614;2023-05-10T00:18:46;15.00;99.90
52615;DHT22;38508;53.158;6.614;2023-05-10T00:21:12;14.90;99.90
52615;DHT22;38508;53.158;6.614;2023-05-10T00:23:38;15.00;99.90
52615;DHT22;38508;53.158;6.614;2023-05-10T00:26:04;15.10;99.90
52615;DHT22;38508;53.158;6.614;2023-05-10T00:28:30;15.20;99.90
52615;DHT22;38508;53.158;6.614;2023-05-10T00:30:55;15.30;99.90
52615;DHT22;38508;53.158;6.614;2023-05-10T00:33:21;15.30;99.90
52615;DHT22;38508;53.158;6.614;2023-05-10T00:35:47;15.30;99.90
52615;DHT22;38508;53.158;6.614;2023-05-10T00:38:12;15.40;99.90
52615;DHT22;38508;53.158;6.614;2023-05-10T00:40:38;15.40;99.90
52615;DHT22;38508;53.158;6.614;2023-05-10T00:43:04;15.40;99.90
52615;DHT22;38508;53.158;6.614;2023-05-10T00:45:35;15.10;99.90
52615;DHT22;38508;53.158;6.614;2023-05-10T00:48:02;15.20;99.90
52615;DHT22;38508;53.158;6.614;2023-05-10T00:50:28;15.10;99.90
52615;DHT22;38508;53.158;6.614;2023-05-10T00:52:54;15.10;99.90
52615;DHT22;38508;53.158;6.614;2023-05-10T00:55:20;15.10;99.90
52615;DHT22;38508;53.158;6.614;2023-05-10T00:57:47;15.00;99.90
52615;DHT22;38508;53.158;6.614;2023-05-10T01:00:13;15.00;99.90
52615;DHT22;38508;53.158;6.614;2023-05-10T01:02:46;15.00;99.90
52615;DHT22;38508;53.158;6.614;2023-05-10T01:05:12;14.80;99.90
52615;DHT22;38508;53.158;6.614;2023-05-10T01:07:38;14.70;99.90
52615;DHT22;38508;53.158;6.614;2023-05-10T01:10:06;14.80;99.90
52615;DHT22;38508;53.158;6.614;2023-05-10T01:12:33;15.10;99.90
52615;DHT22;38508;53.158;6.614;2023-05-10T01:15:00;15.10;99.90
52615;DHT22;38508;53.158;6.614;2023-05-10T01:17:26;15.10;99.90
52615;DHT22;38508;53.158;6.614;2023-05-10T01:19:52;15.20;99.90
52615;DHT22;38508;53.158;6.614;2023-05-10T01:22:41;15.00;99.90
52615;DHT22;38508;53.158;6.614;2023-05-10T01:25:43;15.10;99.90
52615;DHT22;38508;53.158;6.614;2023-05-10T01:28:26;15.20;99.90
52615;DHT22;38508;53.158;6.614;2023-05-10T01:33:46;15.20;99.90
52615;DHT22;38508;53.158;6.614;2023-05-10T01:36:23;15.00;99.90
52615;DHT22;38508;53.158;6.614;2023-05-10T01:44:46;15.00;99.90
52615;DHT22;38508;53.158;6.614;2023-05-10T01:47:17;15.10;99.90
52615;DHT22;38508;53.158;6.614;2023-05-10T01:49:49;15.10;99.90
52615;DHT22;38508;53.158;6.614;2023-05-10T01:52:18;15.20;99.90
52615;DHT22;38508;53.158;6.614;2023-05-10T01:54:55;15.10;99.90
52615;DHT22;38508;53.158;6.614;2023-05-10T01:57:22;15.20;99.90
52615;DHT22;38508;53.158;6.614;2023-05-10T01:59:50;15.20;99.90
52615;DHT22;38508;53.158;6.614;2023-05-10T02:02:20;15.10;99.90
52615;DHT22;38508;53.158;6.614;2023-05-10T02:04:46;14.80;99.90
52615;DHT22;38508;53.158;6.614;2023-05-10T02:07:14;14.40;99.90
52615;DHT22;38508;53.158;6.614;2023-05-10T02:09:40;14.60;99.90
52615;DHT22;38508;53.158;6.614;2023-05-10T02:12:09;14.60;99.90
52615;DHT22;38508;53.158;6.614;2023-05-10T02:14:38;14.70;99.90
52615;DHT22;38508;53.158;6.614;2023-05-10T02:17:07;14.90;99.90
52615;DHT22;38508;53.158;6.614;2023-05-10T02:19:36;14.80;99.90
52615;DHT22;38508;53.158;6.614;2023-05-10T02:22:03;14.90;99.90
52615;DHT22;38508;53.158;6.614;2023-05-10T02:24:29;14.70;99.90
52615;DHT22;38508;53.158;6.614;2023-05-10T02:26:56;14.40;99.90
52615;DHT22;38508;53.158;6.614;2023-05-10T02:29:25;14.60;99.90
52615;DHT22;38508;53.158;6.614;2023-05-10T02:31:53;14.70;99.90
52615;DHT22;38508;53.158;6.614;2023-05-10T02:34:23;14.60;99.90
52615;DHT22;38508;53.158;6.614;2023-05-10T02:36:50;14.60;99.90
52615;DHT22;38508;53.158;6.614;2023-05-10T02:39:18;14.30;99.90
52615;DHT22;38508;53.158;6.614;2023-05-10T02:41:46;14.00;99.90
52615;DHT22;38508;53.158;6.614;2023-05-10T02:44:15;13.90;99.90
52615;DHT22;38508;53.158;6.614;2023-05-10T02:46:41;13.80;99.90
52615;DHT22;38508;53.158;6.614;2023-05-10T02:49:07;13.70;99.90
52615;DHT22;38508;53.158;6.614;2023-05-10T02:51:35;13.90;99.90
52615;DHT22;38508;53.158;6.614;2023-05-10T02:54:10;13.90;99.90
52615;DHT22;38508;53.158;6.614;2023-05-10T02:56:42;14.20;99.90
52615;DHT22;38508;53.158;6.614;2023-05-10T02:59:08;14.50;99.90
52615;DHT22;38508;53.158;6.614;2023-05-10T03:01:34;14.70;99.90
52615;DHT22;38508;53.158;6.614;2023-05-10T03:04:00;14.60;99.90
52615;DHT22;38508;53.158;6.614;2023-05-10T03:06:25;14.70;99.90
52615;DHT22;38508;53.158;6.614;2023-05-10T03:08:51;14.80;99.90
52615;DHT22;38508;53.158;6.614;2023-05-10T03:11:44;14.70;99.90
52615;DHT22;38508;53.158;6.614;2023-05-10T03:14:28;14.70;99.90
52615;DHT22;38508;53.158;6.614;2023-05-10T03:17:10;14.70;99.90
52615;DHT22;38508;53.158;6.614;2023-05-10T03:19:40;14.80;99.90
52615;DHT22;38508;53.158;6.614;2023-05-10T03:22:10;14.70;99.90
52615;DHT22;38508;53.158;6.614;2023-05-10T03:24:36;14.80;99.90
52615;DHT22;38508;53.158;6.614;2023-05-10T03:27:05;14.70;99.90
52615;DHT22;38508;53.158;6.614;2023-05-10T03:29:32;14.80;99.90
52615;DHT22;38508;53.158;6.614;2023-05-10T03:31:59;14.90;99.90
52615;DHT22;38508;53.158;6.614;2023-05-10T03:34:29;14.70;99.90
52615;DHT22;38508;53.158;6.614;2023-05-10T03:36:55;14.70;99.90
52615;DHT22;38508;53.158;6.614;2023-05-10T03:39:21;14.70;99.90
52615;DHT22;38508;53.158;6.614;2023-05-10T03:41:47;14.80;99.90
52615;DHT22;38508;53.158;6.614;2023-05-10T03:44:12;14.70;99.90
52615;DHT22;38508;53.158;6.614;2023-05-10T03:46:38;14.80;99.90
52615;DHT22;38508;53.158;6.614;2023-05-10T03:49:04;14.80;99.90
52615;DHT22;38508;53.158;6.614;2023-05-10T03:51:29;14.90;99.90
52615;DHT22;38508;53.158;6.614;2023-05-10T03:53:56;14.80;99.90
52615;DHT22;38508;53.158;6.614;2023-05-10T03:56:22;14.80;99.90
52615;DHT22;38508;53.158;6.614;2023-05-10T03:58:47;14.50;99.90
52615;DHT22;38508;53.158;6.614;2023-05-10T04:01:13;14.60;99.90
52615;DHT22;38508;53.158;6.614;2023-05-10T04:03:39;14.80;99.90
52615;DHT22;38508;53.158;6.614;2023-05-10T04:06:05;14.80;99.90
52615;DHT22;38508;53.158;6.614;2023-05-10T04:08:31;14.70;99.90
52615;DHT22;38508;53.158;6.614;2023-05-10T04:11:10;14.80;99.90
52615;DHT22;38508;53.158;6.614;2023-05-10T04:13:36;14.60;99.90
52615;DHT22;38508;53.158;6.614;2023-05-10T04:16:02;14.50;99.90
52615;DHT22;38508;53.158;6.614;2023-05-10T04:18:28;14.30;99.90
52615;DHT22;38508;53.158;6.614;2023-05-10T04:20:54;14.30;99.90
52615;DHT22;38508;53.158;6.614;2023-05-10T04:23:19;14.10;99.90
52615;DHT22;38508;53.158;6.614;2023-05-10T04:25:45;14.00;99.90
52615;DHT22;38508;53.158;6.614;2023-05-10T04:28:11;13.90;99.90
52615;DHT22;38508;53.158;6.614;2023-05-10T04:30:37;14.10;99.90
52615;DHT22;38508;53.158;6.614;2023-05-10T04:33:03;13.90;99.90
52615;DHT22;38508;53.158;6.614;2023-05-10T04:35:28;13.80;99.90
52615;DHT22;38508;53.158;6.614;2023-05-10T04:37:54;13.70;99.90
52615;DHT22;38508;53.158;6.614;2023-05-10T04:40:20;13.70;99.90
52615;DHT22;38508;53.158;6.614;2023-05-10T04:42:46;13.80;99.90
52615;DHT22;38508;53.158;6.614;2023-05-10T04:45:12;13.80;99.90
52615;DHT22;38508;53.158;6.614;2023-05-10T04:47:37;13.60;99.90
52615;DHT22;38508;53.158;6.614;2023-05-10T04:50:04;13.50;99.90
52615;DHT22;38508;53.158;6.614;2023-05-10T04:52:30;13.40;99.90
52615;DHT22;38508;53.158;6.614;2023-05-10T04:54:55;13.50;99.90
52615;DHT22;38508;53.158;6.614;2023-05-10T04:57:21;13.40;99.90
52615;DHT22;38508;53.158;6.614;2023-05-10T04:59:47;13.50;99.90
52615;DHT22;38508;53.158;6.614;2023-05-10T05:02:13;13.40;99.90
52615;DHT22;38508;53.158;6.614;2023-05-10T05:04:38;13.50;99.90
52615;DHT22;38508;53.158;6.614;2023-05-10T05:07:04;13.50;99.90
52615;DHT22;38508;53.158;6.614;2023-05-10T05:09:30;13.50;99.90
52615;DHT22;38508;53.158;6.614;2023-05-10T05:11:57;13.50;99.90
52615;DHT22;38508;53.158;6.614;2023-05-10T05:14:23;13.60;99.90
52615;DHT22;38508;53.158;6.614;2023-05-10T05:16:51;13.70;99.90
52615;DHT22;38508;53.158;6.614;2023-05-10T05:19:16;13.60;99.90
52615;DHT22;38508;53.158;6.614;2023-05-10T05:21:42;13.50;99.90
52615;DHT22;38508;53.158;6.614;2023-05-10T05:24:08;13.60;99.90
52615;DHT22;38508;53.158;6.614;2023-05-10T05:26:35;13.60;99.90
52615;DHT22;38508;53.158;6.614;2023-05-10T05:29:02;13.50;99.90
52615;DHT22;38508;53.158;6.614;2023-05-10T05:31:28;13.60;99.90
52615;DHT22;38508;53.158;6.614;2023-05-10T05:33:54;13.60;99.90
52615;DHT22;38508;53.158;6.614;2023-05-10T05:36:19;13.50;99.90
52615;DHT22;38508;53.158;6.614;2023-05-10T05:38:45;13.40;99.90
52615;DHT22;38508;53.158;6.614;2023-05-10T05:41:11;13.40;99.90
52615;DHT22;38508;53.158;6.614;2023-05-10T05:43:36;13.40;99.90
52615;DHT22;38508;53.158;6.614;2023-05-10T05:46:02;13.50;99.90
52615;DHT22;38508;53.158;6.614;2023-05-10T05:48:29;13.50;99.90
52615;DHT22;38508;53.158;6.614;2023-05-10T05:50:55;13.60;99.90
52615;DHT22;38508;53.158;6.614;2023-05-10T05:53:22;13.50;99.90
52615;DHT22;38508;53.158;6.614;2023-05-10T05:55:54;13.50;99.90
52615;DHT22;38508;53.158;6.614;2023-05-10T05:58:21;13.60;99.90
52615;DHT22;38508;53.158;6.614;2023-05-10T06:00:47;13.50;99.90
52615;DHT22;38508;53.158;6.614;2023-05-10T06:03:13;13.50;99.90
52615;DHT22;38508;53.158;6.614;2023-05-10T06:05:38;13.60;99.90
52615;DHT22;38508;53.158;6.614;2023-05-10T06:08:04;13.50;99.90
52615;DHT22;38508;53.158;6.614;2023-05-10T06:10:30;13.50;99.90
52615;DHT22;38508;53.158;6.614;2023-05-10T06:12:56;13.50;99.90
52615;DHT22;38508;53.158;6.614;2023-05-10T06:15:21;13.50;99.90
52615;DHT22;38508;53.158;6.614;2023-05-10T06:17:47;13.60;99.90
52615;DHT22;38508;53.158;6.614;2023-05-10T06:20:15;13.50;99.90
52615;DHT22;38508;53.158;6.614;2023-05-10T06:22:41;13.50;99.90
52615;DHT22;38508;53.158;6.614;2023-05-10T06:25:07;13.50;99.90
52615;DHT22;38508;53.158;6.614;2023-05-10T06:27:33;13.60;99.90
52615;DHT22;38508;53.158;6.614;2023-05-10T06:29:59;13.60;99.90
52615;DHT22;38508;53.158;6.614;2023-05-10T06:32:25;13.60;99.90
52615;DHT22;38508;53.158;6.614;2023-05-10T06:34:50;13.70;99.90
52615;DHT22;38508;53.158;6.614;2023-05-10T06:37:16;13.90;99.90
52615;DHT22;38508;53.158;6.614;2023-05-10T06:39:42;13.70;99.90
52615;DHT22;38508;53.158;6.614;2023-05-10T06:42:07;13.50;99.90
52615;DHT22;38508;53.158;6.614;2023-05-10T06:44:33;13.50;99.90
52615;DHT22;38508;53.158;6.614;2023-05-10T06:46:59;13.50;99.90
52615;DHT22;38508;53.158;6.614;2023-05-10T06:49:25;13.60;99.90
52615;DHT22;38508;53.158;6.614;2023-05-10T06:51:50;13.50;99.90
52615;DHT22;38508;53.158;6.614;2023-05-10T06:54:16;13.40;99.90
52615;DHT22;38508;53.158;6.614;2023-05-10T06:56:42;13.40;99.90
52615;DHT22;38508;53.158;6.614;2023-05-10T06:59:07;13.40;99.90
52615;DHT22;38508;53.158;6.614;2023-05-10T07:01:33;13.60;99.90
52615;DHT22;38508;53.158;6.614;2023-05-10T07:03:59;13.60;99.90
52615;DHT22;38508;53.158;6.614;2023-05-10T07:06:24;13.70;99.90
52615;DHT22;38508;53.158;6.614;2023-05-10T07:08:50;13.70;99.90
52615;DHT22;38508;53.158;6.614;2023-05-10T07:11:16;13.70;99.90
52615;DHT22;38508;53.158;6.614;2023-05-10T07:13:41;13.80;99.90
52615;DHT22;38508;53.158;6.614;2023-05-10T07:16:09;13.80;99.90
52615;DHT22;38508;53.158;6.614;2023-05-10T07:18:35;13.80;99.90
52615;DHT22;38508;53.158;6.614;2023-05-10T07:21:01;13.70;99.90
52615;DHT22;38508;53.158;6.614;2023-05-10T07:23:27;13.70;99.90
52615;DHT22;38508;53.158;6.614;2023-05-10T07:25:53;13.70;99.90
52615;DHT22;38508;53.158;6.614;2023-05-10T07:28:19;13.60;99.90
52615;DHT22;38508;53.158;6.614;2023-05-10T07:30:45;13.70;99.90
52615;DHT22;38508;53.158;6.614;2023-05-10T07:33:13;13.80;99.90
52615;DHT22;38508;53.158;6.614;2023-05-10T07:35:39;13.80;99.90
52615;DHT22;38508;53.158;6.614;2023-05-10T07:38:05;13.90;99.90
52615;DHT22;38508;53.158;6.614;2023-05-10T07:40:31;13.90;99.90
52615;DHT22;38508;53.158;6.614;2023-05-10T07:42:57;14.00;99.90
52615;DHT22;38508;53.158;6.614;2023-05-10T07:45:23;14.00;99.90
52615;DHT22;38508;53.158;6.614;2023-05-10T07:47:49;14.00;99.90
52615;DHT22;38508;53.158;6.614;2023-05-10T07:50:15;14.00;99.90
52615;DHT22;38508;53.158;6.614;2023-05-10T07:52:40;14.10;99.90
52615;DHT22;38508;53.158;6.614;2023-05-10T07:55:07;14.10;99.90
52615;DHT22;38508;53.158;6.614;2023-05-10T07:57:34;14.10;99.90
52615;DHT22;38508;53.158;6.614;2023-05-10T07:59:59;14.20;99.90
52615;DHT22;38508;53.158;6.614;2023-05-10T08:02:25;14.10;99.90
52615;DHT22;38508;53.158;6.614;2023-05-10T08:04:51;14.10;99.90
52615;DHT22;38508;53.158;6.614;2023-05-10T08:07:17;14.00;99.90
52615;DHT22;38508;53.158;6.614;2023-05-10T08:09:43;14.00;99.90
52615;DHT22;38508;53.158;6.614;2023-05-10T08:12:08;13.90;99.90
52615;DHT22;38508;53.158;6.614;2023-05-10T08:14:34;13.80;99.90
52615;DHT22;38508;53.158;6.614;2023-05-10T08:17:02;13.80;99.90
52615;DHT22;38508;53.158;6.614;2023-05-10T08:19:28;13.90;99.90
52615;DHT22;38508;53.158;6.614;2023-05-10T08:21:54;14.10;99.90
52615;DHT22;38508;53.158;6.614;2023-05-10T08:24:21;14.20;99.90
52615;DHT22;38508;53.158;6.614;2023-05-10T08:26:47;14.20;99.90
52615;DHT22;38508;53.158;6.614;2023-05-10T08:29:13;14.30;99.90
52615;DHT22;38508;53.158;6.614;2023-05-10T08:31:39;14.40;99.90
52615;DHT22;38508;53.158;6.614;2023-05-10T08:34:05;14.30;99.90
52615;DHT22;38508;53.158;6.614;2023-05-10T08:36:31;14.10;99.90
52615;DHT22;38508;53.158;6.614;2023-05-10T08:38:57;14.00;99.90
52615;DHT22;38508;53.158;6.614;2023-05-10T08:41:24;14.00;99.90
52615;DHT22;38508;53.158;6.614;2023-05-10T08:43:52;14.10;99.90
52615;DHT22;38508;53.158;6.614;2023-05-10T08:46:20;14.20;99.90
52615;DHT22;38508;53.158;6.614;2023-05-10T08:48:47;14.30;99.90
52615;DHT22;38508;53.158;6.614;2023-05-10T08:51:14;14.20;99.90
52615;DHT22;38508;53.158;6.614;2023-05-10T08:53:41;14.20;99.90
52615;DHT22;38508;53.158;6.614;2023-05-10T08:56:07;14.20;99.90
52615;DHT22;38508;53.158;6.614;2023-05-10T08:58:33;14.20;99.90
52615;DHT22;38508;53.158;6.614;2023-05-10T09:01:00;14.20;99.90
52615;DHT22;38508;53.158;6.614;2023-05-10T09:03:26;14.30;99.90
52615;DHT22;38508;53.158;6.614;2023-05-10T09:05:52;14.40;99.90
52615;DHT22;38508;53.158;6.614;2023-05-10T09:08:18;14.40;99.90
52615;DHT22;38508;53.158;6.614;2023-05-10T09:10:44;14.50;99.90
52615;DHT22;38508;53.158;6.614;2023-05-10T09:13:14;14.60;99.90
52615;DHT22;38508;53.158;6.614;2023-05-10T09:15:40;14.60;99.90
52615;DHT22;38508;53.158;6.614;2023-05-10T09:18:06;14.50;99.90
52615;DHT22;38508;53.158;6.614;2023-05-10T09:20:32;14.60;99.90
52615;DHT22;38508;53.158;6.614;2023-05-10T09:22:58;14.60;99.90
52615;DHT22;38508;53.158;6.614;2023-05-10T09:25:23;14.70;99.90
52615;DHT22;38508;53.158;6.614;2023-05-10T09:27:49;14.70;99.90
52615;DHT22;38508;53.158;6.614;2023-05-10T09:30:33;14.70;99.90
52615;DHT22;38508;53.158;6.614;2023-05-10T09:32:59;14.60;99.90
52615;DHT22;38508;53.158;6.614;2023-05-10T09:35:27;14.80;99.90
52615;DHT22;38508;53.158;6.614;2023-05-10T09:37:54;14.70;99.90
52615;DHT22;38508;53.158;6.614;2023-05-10T09:40:22;14.80;99.90
52615;DHT22;38508;53.158;6.614;2023-05-10T09:42:56;14.80;99.90
52615;DHT22;38508;53.158;6.614;2023-05-10T09:45:24;14.90;99.90
52615;DHT22;38508;53.158;6.614;2023-05-10T09:47:50;15.10;99.90
52615;DHT22;38508;53.158;6.614;2023-05-10T09:50:15;15.10;99.90
52615;DHT22;38508;53.158;6.614;2023-05-10T09:52:48;15.20;99.90
52615;DHT22;38508;53.158;6.614;2023-05-10T09:55:15;15.20;99.90
52615;DHT22;38508;53.158;6.614;2023-05-10T09:57:41;15.30;99.90
52615;DHT22;38508;53.158;6.614;2023-05-10T10:00:07;15.40;99.90
52615;DHT22;38508;53.158;6.614;2023-05-10T10:02:35;15.20;99.90
52615;DHT22;38508;53.158;6.614;2023-05-10T10:05:02;15.20;99.90
52615;DHT22;38508;53.158;6.614;2023-05-10T10:07:32;15.30;99.90
52615;DHT22;38508;53.158;6.614;2023-05-10T10:09:59;15.40;99.90
52615;DHT22;38508;53.158;6.614;2023-05-10T10:12:25;15.50;99.90
52615;DHT22;38508;53.158;6.614;2023-05-10T10:14:51;15.70;99.90
52615;DHT22;38508;53.158;6.614;2023-05-10T10:17:18;15.80;99.90
52615;DHT22;38508;53.158;6.614;2023-05-10T10:19:45;15.70;99.90
52615;DHT22;38508;53.158;6.614;2023-05-10T10:22:12;15.60;99.90
52615;DHT22;38508;53.158;6.614;2023-05-10T10:24:38;15.60;99.90
52615;DHT22;38508;53.158;6.614;2023-05-10T10:27:28;15.50;99.90
52615;DHT22;38508;53.158;6.614;2023-05-10T10:35:32;15.10;99.90
52615;DHT22;38508;53.158;6.614;2023-05-10T10:37:58;15.10;99.90
52615;DHT22;38508;53.158;6.614;2023-05-10T10:40:33;15.40;99.90
52615;DHT22;38508;53.158;6.614;2023-05-10T10:43:22;15.20;99.90
52615;DHT22;38508;53.158;6.614;2023-05-10T10:49:09;15.70;99.90
52615;DHT22;38508;53.158;6.614;2023-05-10T10:51:38;15.90;99.90
52615;DHT22;38508;53.158;6.614;2023-05-10T10:54:11;15.90;99.90
52615;DHT22;38508;53.158;6.614;2023-05-10T10:56:37;15.70;99.90
52615;DHT22;38508;53.158;6.614;2023-05-10T10:59:02;15.70;99.90
52615;DHT22;38508;53.158;6.614;2023-05-10T11:01:33;15.70;99.90
52615;DHT22;38508;53.158;6.614;2023-05-10T11:06:33;15.70;99.90
52615;DHT22;38508;53.158;6.614;2023-05-10T11:09:05;15.60;99.90
52615;DHT22;38508;53.158;6.614;2023-05-10T11:11:31;15.70;99.90
52615;DHT22;38508;53.158;6.614;2023-05-10T11:14:04;15.80;99.90
52615;DHT22;38508;53.158;6.614;2023-05-10T11:16:41;16.10;99.90
52615;DHT22;38508;53.158;6.614;2023-05-10T11:19:15;16.30;99.90
52615;DHT22;38508;53.158;6.614;2023-05-10T11:24:29;16.60;99.90
52615;DHT22;38508;53.158;6.614;2023-05-10T11:26:55;16.50;99.90
52615;DHT22;38508;53.158;6.614;2023-05-10T11:29:21;16.50;99.90
52615;DHT22;38508;53.158;6.614;2023-05-10T11:31:48;16.50;99.90
52615;DHT22;38508;53.158;6.614;2023-05-10T11:34:28;16.40;99.90
52615;DHT22;38508;53.158;6.614;2023-05-10T11:37:03;16.40;99.90
52615;DHT22;38508;53.158;6.614;2023-05-10T11:39:32;16.30;99.90
52615;DHT22;38508;53.158;6.614;2023-05-10T11:41:59;16.30;99.90
52615;DHT22;38508;53.158;6.614;2023-05-10T11:44:32;16.20;99.90
52615;DHT22;38508;53.158;6.614;2023-05-10T11:46:59;16.10;99.90
52615;DHT22;38508;53.158;6.614;2023-05-10T11:49:25;16.00;99.90
52615;DHT22;38508;53.158;6.614;2023-05-10T11:51:51;16.00;99.90
52615;DHT22;38508;53.158;6.614;2023-05-10T11:54:17;16.20;99.90
52615;DHT22;38508;53.158;6.614;2023-05-10T11:56:43;16.00;99.90
52615;DHT22;38508;53.158;6.614;2023-05-10T11:59:08;15.80;99.90
52615;DHT22;38508;53.158;6.614;2023-05-10T12:01:34;15.90;99.90
52615;DHT22;38508;53.158;6.614;2023-05-10T12:04:00;16.00;99.90
52615;DHT22;38508;53.158;6.614;2023-05-10T12:06:29;16.10;99.90
52615;DHT22;38508;53.158;6.614;2023-05-10T12:08:55;16.10;99.90
52615;DHT22;38508;53.158;6.614;2023-05-10T12:11:24;16.40;99.90
52615;DHT22;38508;53.158;6.614;2023-05-10T12:13:50;16.40;99.90
52615;DHT22;38508;53.158;6.614;2023-05-10T12:16:19;16.30;99.90
52615;DHT22;38508;53.158;6.614;2023-05-10T12:18:47;16.30;99.90
52615;DHT22;38508;53.158;6.614;2023-05-10T12:21:14;16.40;99.90
52615;DHT22;38508;53.158;6.614;2023-05-10T12:23:40;16.30;99.90
52615;DHT22;38508;53.158;6.614;2023-05-10T12:26:09;16.50;99.90
52615;DHT22;38508;53.158;6.614;2023-05-10T12:28:35;16.50;99.90
52615;DHT22;38508;53.158;6.614;2023-05-10T12:31:02;16.60;99.90
52615;DHT22;38508;53.158;6.614;2023-05-10T12:33:38;16.70;99.90
52615;DHT22;38508;53.158;6.614;2023-05-10T12:36:05;16.60;99.90
52615;DHT22;38508;53.158;6.614;2023-05-10T12:38:36;16.80;99.90
52615;DHT22;38508;53.158;6.614;2023-05-10T12:41:08;16.80;99.90
52615;DHT22;38508;53.158;6.614;2023-05-10T12:43:35;16.70;99.90
52615;DHT22;38508;53.158;6.614;2023-05-10T12:46:12;16.70;99.90
52615;DHT22;38508;53.158;6.614;2023-05-10T12:48:38;16.60;99.90
52615;DHT22;38508;53.158;6.614;2023-05-10T12:51:05;16.60;99.90
52615;DHT22;38508;53.158;6.614;2023-05-10T12:53:34;16.70;99.90
52615;DHT22;38508;53.158;6.614;2023-05-10T12:55:59;16.80;99.90
52615;DHT22;38508;53.158;6.614;2023-05-10T12:58:25;16.80;99.90
52615;DHT22;38508;53.158;6.614;2023-05-10T13:00:51;16.90;99.90
52615;DHT22;38508;53.158;6.614;2023-05-10T13:03:17;16.90;99.90
52615;DHT22;38508;53.158;6.614;2023-05-10T13:05:43;16.80;99.90
52615;DHT22;38508;53.158;6.614;2023-05-10T13:08:08;16.70;99.90
52615;DHT22;38508;53.158;6.614;2023-05-10T13:10:34;16.60;99.90
52615;DHT22;38508;53.158;6.614;2023-05-10T13:13:00;16.70;99.90
52615;DHT22;38508;53.158;6.614;2023-05-10T13:15:26;16.80;99.90
52615;DHT22;38508;53.158;6.614;2023-05-10T13:17:53;16.80;99.90
52615;DHT22;38508;53.158;6.614;2023-05-10T13:20:19;16.80;99.90
52615;DHT22;38508;53.158;6.614;2023-05-10T13:22:45;16.60;99.90
52615;DHT22;38508;53.158;6.614;2023-05-10T13:25:11;16.60;99.90
52615;DHT22;38508;53.158;6.614;2023-05-10T13:27:39;16.70;99.90
52615;DHT22;38508;53.158;6.614;2023-05-10T13:30:05;16.80;99.90
52615;DHT22;38508;53.158;6.614;2023-05-10T13:32:31;16.90;99.90
52615;DHT22;38508;53.158;6.614;2023-05-10T13:34:57;17.10;99.90
52615;DHT22;38508;53.158;6.614;2023-05-10T13:37:22;17.20;99.90
52615;DHT22;38508;53.158;6.614;2023-05-10T13:39:48;17.20;99.90
52615;DHT22;38508;53.158;6.614;2023-05-10T13:42:14;17.20;99.90
52615;DHT22;38508;53.158;6.614;2023-05-10T13:44:39;17.10;99.90
52615;DHT22;38508;53.158;6.614;2023-05-10T13:47:05;17.00;99.90
52615;DHT22;38508;53.158;6.614;2023-05-10T13:49:31;17.00;99.90
52615;DHT22;38508;53.158;6.614;2023-05-10T13:51:57;17.10;99.90
52615;DHT22;38508;53.158;6.614;2023-05-10T13:54:23;17.10;99.90
52615;DHT22;38508;53.158;6.614;2023-05-10T13:56:49;17.20;99.90
52615;DHT22;38508;53.158;6.614;2023-05-10T13:59:15;17.10;99.90
52615;DHT22;38508;53.158;6.614;2023-05-10T14:01:41;17.20;99.90
52615;DHT22;38508;53.158;6.614;2023-05-10T14:04:08;17.20;99.90
52615;DHT22;38508;53.158;6.614;2023-05-10T14:06:37;17.20;99.90
52615;DHT22;38508;53.158;6.614;2023-05-10T14:09:03;17.30;99.90
52615;DHT22;38508;53.158;6.614;2023-05-10T14:11:29;17.30;99.90
52615;DHT22;38508;53.158;6.614;2023-05-10T14:13:55;17.40;99.90
52615;DHT22;38508;53.158;6.614;2023-05-10T14:16:21;17.50;99.90
52615;DHT22;38508;53.158;6.614;2023-05-10T14:18:47;17.60;99.90
52615;DHT22;38508;53.158;6.614;2023-05-10T14:21:13;17.60;99.90
52615;DHT22;38508;53.158;6.614;2023-05-10T14:23:39;17.50;99.90
52615;DHT22;38508;53.158;6.614;2023-05-10T14:26:04;17.40;99.90
52615;DHT22;38508;53.158;6.614;2023-05-10T14:28:30;17.40;99.90
52615;DHT22;38508;53.158;6.614;2023-05-10T14:30:56;17.30;99.90
52615;DHT22;38508;53.158;6.614;2023-05-10T14:33:22;17.30;99.90
52615;DHT22;38508;53.158;6.614;2023-05-10T14:35:47;17.40;99.90
52615;DHT22;38508;53.158;6.614;2023-05-10T14:38:14;17.40;99.90
52615;DHT22;38508;53.158;6.614;2023-05-10T14:40:40;17.40;99.90
52615;DHT22;38508;53.158;6.614;2023-05-10T14:43:05;17.40;99.90
52615;DHT22;38508;53.158;6.614;2023-05-10T14:45:31;17.20;99.90
52615;DHT22;38508;53.158;6.614;2023-05-10T14:47:57;17.10;99.90
52615;DHT22;38508;53.158;6.614;2023-05-10T14:50:23;17.10;99.90
52615;DHT22;38508;53.158;6.614;2023-05-10T14:52:49;17.30;99.90
52615;DHT22;38508;53.158;6.614;2023-05-10T14:55:15;17.50;99.90
52615;DHT22;38508;53.158;6.614;2023-05-10T14:57:41;17.50;99.90
52615;DHT22;38508;53.158;6.614;2023-05-10T15:00:07;17.50;99.90
52615;DHT22;38508;53.158;6.614;2023-05-10T15:02:33;17.50;99.90
52615;DHT22;38508;53.158;6.614;2023-05-10T15:04:59;17.60;99.90
52615;DHT22;38508;53.158;6.614;2023-05-10T15:07:24;17.60;99.90
52615;DHT22;38508;53.158;6.614;2023-05-10T15:09:51;17.60;99.90
52615;DHT22;38508;53.158;6.614;2023-05-10T15:12:19;17.60;99.90
52615;DHT22;38508;53.158;6.614;2023-05-10T15:14:46;17.70;99.90
52615;DHT22;38508;53.158;6.614;2023-05-10T15:17:11;17.50;99.90
52615;DHT22;38508;53.158;6.614;2023-05-10T15:19:37;17.60;99.90
52615;DHT22;38508;53.158;6.614;2023-05-10T15:22:04;17.80;99.90
52615;DHT22;38508;53.158;6.614;2023-05-10T15:24:30;18.00;99.90
52615;DHT22;38508;53.158;6.614;2023-05-10T15:26:56;18.00;99.90
52615;DHT22;38508;53.158;6.614;2023-05-10T15:29:22;18.20;99.90
52615;DHT22;38508;53.158;6.614;2023-05-10T15:31:49;18.20;99.90
52615;DHT22;38508;53.158;6.614;2023-05-10T15:34:16;18.00;99.90
52615;DHT22;38508;53.158;6.614;2023-05-10T15:36:41;18.00;99.90
52615;DHT22;38508;53.158;6.614;2023-05-10T15:39:07;18.00;99.90
52615;DHT22;38508;53.158;6.614;2023-05-10T15:41:35;17.90;99.90
52615;DHT22;38508;53.158;6.614;2023-05-10T15:44:00;17.90;99.90
52615;DHT22;38508;53.158;6.614;2023-05-10T15:46:27;17.80;99.90
52615;DHT22;38508;53.158;6.614;2023-05-10T15:48:53;17.60;99.90
52615;DHT22;38508;53.158;6.614;2023-05-10T15:51:19;17.70;99.90
52615;DHT22;38508;53.158;6.614;2023-05-10T15:53:45;17.70;99.90